createdAt,value
2023-02-08T00:00:59.494Z,-5.15
2023-02-08T00:03:29.484Z,-5.18
2023-02-08T00:05:59.656Z,-5.21
2023-02-08T00:08:33.365Z,-5.25
2023-02-08T00:11:03.008Z,-5.28
2023-02-08T00:13:33.758Z,-5.30
2023-02-08T00:16:04.435Z,-5.33
2023-02-08T00:18:34.452Z,-5.37
2023-02-08T00:21:12.031Z,-5.40
2023-02-08T00:23:42.886Z,-5.44
2023-02-08T00:26:16.217Z,-5.47
2023-02-08T00:28:46.538Z,-5.51
2023-02-08T00:31:16.045Z,-5.54
2023-02-08T00:33:46.011Z,-5.57
2023-02-08T00:36:16.422Z,-5.60
2023-02-08T00:38:46.122Z,-5.65
2023-02-08T00:41:16.551Z,-5.67
2023-02-08T00:43:46.913Z,-5.69
2023-02-08T00:46:19.039Z,-5.69
2023-02-08T00:48:48.662Z,-5.69
2023-02-08T00:51:18.692Z,-5.73
2023-02-08T00:53:48.152Z,-5.80
2023-02-08T00:56:18.192Z,-5.85
2023-02-08T00:58:48.989Z,-5.86
2023-02-08T01:01:20.474Z,-5.88
2023-02-08T01:03:53.441Z,-5.90
2023-02-08T01:06:24.003Z,-5.91
2023-02-08T01:08:54.609Z,-5.95
2023-02-08T01:11:27.256Z,-5.95
2023-02-08T01:13:58.149Z,-5.94
2023-02-08T01:16:30.779Z,-5.95
2023-02-08T01:19:07.731Z,-5.95
2023-02-08T01:21:43.163Z,-5.96
2023-02-08T01:24:13.146Z,-5.96
2023-02-08T01:26:45.010Z,-5.96
2023-02-08T01:29:17.262Z,-5.95
2023-02-08T01:31:47.270Z,-5.96
2023-02-08T01:34:17.275Z,-5.99
2023-02-08T01:36:47.090Z,-6.02
2023-02-08T01:39:17.259Z,-6.06
2023-02-08T01:41:47.466Z,-6.10
2023-02-08T01:44:20.444Z,-6.14
2023-02-08T01:46:51.788Z,-6.16
2023-02-08T01:49:34.092Z,-6.24
2023-02-08T01:52:15.951Z,-6.31
2023-02-08T01:55:11.948Z,-6.32
2023-02-08T01:57:43.797Z,-6.36
2023-02-08T02:00:23.842Z,-6.41
2023-02-08T02:02:59.312Z,-6.45
2023-02-08T02:05:42.031Z,-6.50
2023-02-08T02:08:13.288Z,-6.57
2023-02-08T02:10:45.008Z,-6.62
2023-02-08T02:13:24.770Z,-6.66
2023-02-08T02:15:56.532Z,-6.66
2023-02-08T02:18:30.220Z,-6.68
2023-02-08T02:21:20.219Z,-6.73
2023-02-08T02:23:56.018Z,-6.77
2023-02-08T02:26:55.189Z,-6.82
2023-02-08T02:29:58.940Z,-6.90
2023-02-08T02:32:30.949Z,-6.98
2023-02-08T02:35:46.665Z,-7.02
2023-02-08T02:38:49.271Z,-7.08
2023-02-08T02:42:03.552Z,-7.14
2023-02-08T02:45:12.023Z,-7.18
2023-02-08T02:48:12.018Z,-7.23
2023-02-08T02:51:04.502Z,-7.27
2023-02-08T02:53:49.485Z,-7.31
2023-02-08T02:56:24.570Z,-7.36
2023-02-08T02:58:59.445Z,-7.40
2023-02-08T03:01:31.785Z,-7.44
2023-02-08T03:04:16.813Z,-7.46
2023-02-08T03:06:56.265Z,-7.50
2023-02-08T03:09:37.607Z,-7.53
2023-02-08T03:12:19.398Z,-7.51
2023-02-08T03:14:59.668Z,-7.50
2023-02-08T03:17:57.828Z,-7.57
2023-02-08T03:20:42.161Z,-7.62
2023-02-08T03:23:29.667Z,-7.58
2023-02-08T03:26:27.933Z,-7.56
2023-02-08T03:29:13.903Z,-7.56
2023-02-08T03:31:56.740Z,-7.63
2023-02-08T03:34:51.392Z,-7.65
2023-02-08T03:37:38.331Z,-7.70
2023-02-08T03:40:37.362Z,-7.74
2023-02-08T03:43:17.817Z,-7.84
2023-02-08T03:45:59.600Z,-7.87
2023-02-08T03:48:32.361Z,-7.89
2023-02-08T03:51:05.400Z,-7.88
2023-02-08T03:53:38.877Z,-7.88
2023-02-08T03:56:25.906Z,-7.91
2023-02-08T03:59:00.685Z,-7.97
2023-02-08T04:01:37.329Z,-8.03
2023-02-08T04:04:07.284Z,-8.09
2023-02-08T04:06:36.625Z,-8.15
2023-02-08T04:09:06.944Z,-8.13
2023-02-08T04:11:37.577Z,-8.14
2023-02-08T04:14:08.164Z,-8.17
2023-02-08T04:16:37.686Z,-8.22
2023-02-08T04:19:10.704Z,-8.32
2023-02-08T04:21:45.125Z,-8.33
2023-02-08T04:24:17.862Z,-8.34
2023-02-08T04:26:51.354Z,-8.34
2023-02-08T04:29:20.547Z,-8.37
2023-02-08T04:34:34.600Z,-8.47
2023-02-08T04:37:06.152Z,-8.54
2023-02-08T04:39:38.984Z,-8.59
2023-02-08T04:42:09.609Z,-8.61
2023-02-08T04:44:41.821Z,-8.62
2023-02-08T04:47:11.182Z,-8.62
2023-02-08T04:49:41.768Z,-8.59
2023-02-08T04:52:14.359Z,-8.58
2023-02-08T04:54:43.809Z,-8.61
2023-02-08T04:57:15.619Z,-8.65
2023-02-08T04:59:44.843Z,-8.66
2023-02-08T05:02:19.470Z,-8.66
2023-02-08T05:04:49.474Z,-8.67
2023-02-08T05:07:19.850Z,-8.70
2023-02-08T05:09:49.769Z,-8.68
2023-02-08T05:12:24.172Z,-8.65
2023-02-08T05:14:54.746Z,-8.65
2023-02-08T05:17:27.238Z,-8.68
2023-02-08T05:19:59.252Z,-8.72
2023-02-08T05:22:29.431Z,-8.72
2023-02-08T05:25:07.297Z,-8.70
2023-02-08T05:27:37.927Z,-8.70
2023-02-08T05:30:08.906Z,-8.70
2023-02-08T05:32:39.103Z,-8.73
2023-02-08T05:35:29.355Z,-8.74
2023-02-08T05:37:59.035Z,-8.77
2023-02-08T05:40:29.140Z,-8.79
2023-02-08T05:43:05.482Z,-8.83
2023-02-08T05:45:34.782Z,-8.90
2023-02-08T05:48:05.188Z,-8.94
2023-02-08T05:50:35.543Z,-8.97
2023-02-08T05:53:05.337Z,-9.05
2023-02-08T05:55:36.139Z,-9.13
2023-02-08T05:58:06.739Z,-9.23
2023-02-08T06:00:36.469Z,-9.26
2023-02-08T06:03:10.336Z,-9.27
2023-02-08T06:05:41.568Z,-9.29
2023-02-08T06:08:16.487Z,-9.30
2023-02-08T06:10:51.720Z,-9.29
2023-02-08T06:13:39.647Z,-9.31
2023-02-08T06:16:09.789Z,-9.34
2023-02-08T06:18:39.268Z,-9.31
2023-02-08T06:21:08.726Z,-9.26
2023-02-08T06:23:39.352Z,-9.25
2023-02-08T06:26:09.483Z,-9.19
2023-02-08T06:28:41.856Z,-9.10
2023-02-08T06:31:11.920Z,-9.00
2023-02-08T06:33:41.678Z,-8.91
2023-02-08T06:36:10.983Z,-8.80
2023-02-08T06:38:43.348Z,-8.70
2023-02-08T06:41:19.894Z,-8.57
2023-02-08T06:43:49.162Z,-8.46
2023-02-08T06:46:21.096Z,-8.35
2023-02-08T06:48:52.062Z,-8.22
2023-02-08T06:51:21.900Z,-8.12
2023-02-08T06:53:51.382Z,-8.01
2023-02-08T06:56:40.739Z,-7.90
2023-02-08T06:59:10.759Z,-7.81
2023-02-08T07:01:39.880Z,-7.73
2023-02-08T07:04:12.930Z,-7.63
2023-02-08T07:06:42.920Z,-7.48
2023-02-08T07:09:22.329Z,-7.31
2023-02-08T07:11:52.623Z,-7.13
2023-02-08T07:14:23.789Z,-6.97
2023-02-08T07:16:56.265Z,-6.78
2023-02-08T07:19:27.090Z,-6.61
2023-02-08T07:21:59.972Z,-6.47
2023-02-08T07:24:29.865Z,-6.36
2023-02-08T07:27:00.056Z,-6.22
2023-02-08T07:29:31.466Z,-6.07
2023-02-08T07:32:04.871Z,-5.92
2023-02-08T07:34:38.893Z,-5.83
2023-02-08T07:37:15.991Z,-5.71
2023-02-08T07:39:45.866Z,-5.56
2023-02-08T07:42:15.505Z,-5.41
2023-02-08T07:44:55.196Z,-5.30
2023-02-08T07:47:25.145Z,-5.19
2023-02-08T07:49:54.641Z,-5.09
2023-02-08T07:52:25.233Z,-4.98
2023-02-08T07:54:55.878Z,-4.88
2023-02-08T07:57:25.837Z,-4.79
2023-02-08T07:59:56.605Z,-4.67
2023-02-08T08:02:25.780Z,-4.57
2023-02-08T08:04:55.334Z,-4.48
2023-02-08T08:07:24.815Z,-4.40
2023-02-08T08:09:59.164Z,-4.33
2023-02-08T08:12:28.919Z,-4.21
2023-02-08T08:14:59.438Z,-4.07
2023-02-08T08:17:32.451Z,-3.93
2023-02-08T08:20:03.449Z,-3.76
2023-02-08T08:22:39.407Z,-3.61
2023-02-08T08:25:15.137Z,-3.51
2023-02-08T08:27:55.701Z,-3.39
2023-02-08T08:30:25.571Z,-3.26
2023-02-08T08:32:55.555Z,-3.15
2023-02-08T08:35:25.716Z,-3.00
2023-02-08T08:37:56.040Z,-2.88
2023-02-08T08:40:27.285Z,-2.73
2023-02-08T08:42:59.733Z,-2.60
2023-02-08T08:45:31.744Z,-2.50
2023-02-08T08:48:06.426Z,-2.38
2023-02-08T08:50:39.199Z,-2.27
2023-02-08T08:53:10.148Z,-2.16
2023-02-08T08:55:45.737Z,-2.01
2023-02-08T08:58:19.078Z,-1.86
2023-02-08T09:00:50.224Z,-1.72
2023-02-08T09:03:20.052Z,-1.62
2023-02-08T09:05:50.318Z,-1.48
2023-02-08T09:08:23.253Z,-1.33
2023-02-08T09:11:08.303Z,-1.20
2023-02-08T09:13:38.422Z,-1.05
2023-02-08T09:16:24.880Z,-0.85
2023-02-08T09:18:57.512Z,-0.64
2023-02-08T09:21:28.324Z,-0.44
2023-02-08T09:23:59.617Z,-0.25
2023-02-08T09:26:32.674Z,0.01
2023-02-08T09:29:08.798Z,0.28
2023-02-08T09:31:40.001Z,0.50
2023-02-08T09:34:10.922Z,0.68
2023-02-08T09:36:44.602Z,0.86
2023-02-08T09:39:25.989Z,1.08
2023-02-08T09:42:14.905Z,1.30
2023-02-08T09:45:15.234Z,1.56
2023-02-08T09:47:59.426Z,1.77
2023-02-08T09:50:45.393Z,1.97
2023-02-08T09:53:38.135Z,2.29
2023-02-08T09:56:16.560Z,2.52
2023-02-08T09:58:51.428Z,2.75
2023-02-08T10:01:31.155Z,2.93
2023-02-08T10:04:18.281Z,3.10
2023-02-08T10:06:50.053Z,3.31
2023-02-08T10:09:26.496Z,3.50
2023-02-08T10:11:58.396Z,3.77
2023-02-08T10:14:45.549Z,4.07
2023-02-08T10:17:43.554Z,4.44
2023-02-08T10:20:43.084Z,4.62
2023-02-08T10:23:31.664Z,4.95
2023-02-08T10:26:32.134Z,5.29
2023-02-08T10:29:37.882Z,5.70
2023-02-08T10:32:28.476Z,5.94
2023-02-08T10:35:04.727Z,6.18
2023-02-08T10:37:53.854Z,6.24
2023-02-08T10:40:41.766Z,6.46
2023-02-08T10:43:47.435Z,6.65
2023-02-08T10:47:08.788Z,6.63
2023-02-08T10:50:09.604Z,6.96
2023-02-08T10:52:49.702Z,7.24
2023-02-08T10:55:40.502Z,7.46
2023-02-08T10:58:27.641Z,7.64
2023-02-08T11:01:34.425Z,7.77
2023-02-08T11:04:23.027Z,7.97
2023-02-08T11:07:16.991Z,8.10
2023-02-08T11:09:53.000Z,8.20
2023-02-08T11:12:24.030Z,8.43
2023-02-08T11:14:54.525Z,8.48
2023-02-08T11:17:34.499Z,8.63
2023-02-08T11:20:06.421Z,8.78
2023-02-08T11:22:37.692Z,8.89
2023-02-08T11:25:08.503Z,9.01
2023-02-08T11:27:45.483Z,8.79
2023-02-08T11:30:21.464Z,8.85
2023-02-08T11:33:14.866Z,8.86
2023-02-08T11:35:57.835Z,8.97
2023-02-08T11:38:28.904Z,9.23
2023-02-08T11:41:07.175Z,9.53
2023-02-08T11:43:36.952Z,9.70
2023-02-08T11:46:07.333Z,9.95
2023-02-08T11:48:50.327Z,10.17
2023-02-08T11:51:36.435Z,10.01
2023-02-08T11:54:09.642Z,9.98
2023-02-08T11:56:39.296Z,9.95
2023-02-08T11:59:25.166Z,10.14
2023-02-08T12:01:55.844Z,10.54
2023-02-08T12:04:26.350Z,10.93
2023-02-08T12:07:20.307Z,11.03
2023-02-08T12:10:29.735Z,11.20
2023-02-08T12:13:27.730Z,11.05
2023-02-08T12:16:52.335Z,11.12
2023-02-08T12:19:37.325Z,10.70
2023-02-08T12:22:18.441Z,10.86
2023-02-08T12:25:34.725Z,11.05
2023-02-08T12:28:23.876Z,11.18
2023-02-08T12:31:33.145Z,11.37
2023-02-08T12:34:15.532Z,11.60
2023-02-08T12:37:40.487Z,11.78
2023-02-08T12:40:45.803Z,11.49
2023-02-08T12:43:53.170Z,11.48
2023-02-08T12:46:58.957Z,11.34
2023-02-08T12:49:49.472Z,11.39
2023-02-08T12:52:58.227Z,11.61
2023-02-08T12:55:41.854Z,11.72
2023-02-08T12:58:35.819Z,11.85
2023-02-08T13:01:20.819Z,11.80
2023-02-08T13:04:15.351Z,11.93
2023-02-08T13:07:03.312Z,12.02
2023-02-08T13:09:42.513Z,12.10
2023-02-08T13:12:20.810Z,11.98
2023-02-08T13:15:02.959Z,11.85
2023-02-08T13:17:58.478Z,11.79
2023-02-08T13:20:43.989Z,11.44
2023-02-08T13:23:51.578Z,11.51
2023-02-08T13:26:34.899Z,11.70
2023-02-08T13:29:05.503Z,11.89
2023-02-08T13:31:45.876Z,12.06
2023-02-08T13:34:25.681Z,12.04
2023-02-08T13:37:01.131Z,12.01
2023-02-08T13:39:47.025Z,12.03
2023-02-08T13:42:32.049Z,12.01
2023-02-08T13:45:05.779Z,12.13
2023-02-08T13:48:10.007Z,12.13
2023-02-08T13:50:59.175Z,12.19
2023-02-08T13:53:40.164Z,12.13
2023-02-08T13:56:13.694Z,12.16
2023-02-08T13:58:52.299Z,12.19
2023-02-08T14:01:28.972Z,12.07
2023-02-08T14:04:13.293Z,12.02
2023-02-08T14:06:58.281Z,11.95
2023-02-08T14:09:48.678Z,11.88
2023-02-08T14:13:09.563Z,11.81
2023-02-08T14:15:41.159Z,11.81
2023-02-08T14:18:27.397Z,11.76
2023-02-08T14:21:05.024Z,11.66
2023-02-08T14:23:40.583Z,11.49
2023-02-08T14:26:24.712Z,11.02
2023-02-08T14:29:07.447Z,10.55
2023-02-08T14:31:59.477Z,10.50
2023-02-08T14:34:38.934Z,10.38
2023-02-08T14:37:22.144Z,10.28
2023-02-08T14:40:24.420Z,10.25
2023-02-08T14:43:28.675Z,10.16
2023-02-08T14:46:39.614Z,10.03
2023-02-08T14:49:34.717Z,9.89
2023-02-08T14:52:25.322Z,9.70
2023-02-08T14:55:09.700Z,9.47
2023-02-08T14:58:08.772Z,9.13
2023-02-08T15:00:56.042Z,8.62
2023-02-08T15:03:35.702Z,8.16
2023-02-08T15:06:49.865Z,7.65
2023-02-08T15:09:25.925Z,6.97
2023-02-08T15:12:03.048Z,6.38
2023-02-08T15:14:36.703Z,5.83
2023-02-08T15:17:18.880Z,5.21
2023-02-08T15:19:51.574Z,4.58
2023-02-08T15:22:29.433Z,3.99
2023-02-08T15:25:20.475Z,3.55
2023-02-08T15:27:56.398Z,3.11
2023-02-08T15:30:32.756Z,2.73
2023-02-08T15:33:11.022Z,2.40
2023-02-08T15:35:43.484Z,2.04
2023-02-08T15:38:23.791Z,1.73
2023-02-08T15:41:14.424Z,1.44
2023-02-08T15:43:46.672Z,1.15
2023-02-08T15:46:24.758Z,0.95
2023-02-08T15:49:01.447Z,0.73
2023-02-08T15:51:30.990Z,0.54
2023-02-08T15:54:01.470Z,0.38
2023-02-08T15:56:39.486Z,0.24
2023-02-08T15:59:24.184Z,0.05
2023-02-08T16:01:58.662Z,-0.16
2023-02-08T16:04:28.400Z,-0.33
2023-02-08T16:07:00.125Z,-0.49
2023-02-08T16:09:31.931Z,-0.60
2023-02-08T16:12:01.939Z,-0.70
2023-02-08T16:14:47.393Z,-0.80
2023-02-08T16:17:49.292Z,-0.92
2023-02-08T16:20:23.588Z,-1.03
2023-02-08T16:23:01.784Z,-1.16
2023-02-08T16:25:49.535Z,-1.32
2023-02-08T16:28:30.421Z,-1.49
2023-02-08T16:31:04.366Z,-1.62
2023-02-08T16:33:37.622Z,-1.72
2023-02-08T16:36:07.701Z,-1.83
2023-02-08T16:38:40.086Z,-1.91
2023-02-08T16:41:14.638Z,-2.00
2023-02-08T16:43:46.917Z,-2.09
2023-02-08T16:46:32.955Z,-2.17
2023-02-08T16:49:06.336Z,-2.28
2023-02-08T16:51:38.204Z,-2.35
2023-02-08T16:54:09.015Z,-2.42
2023-02-08T16:56:42.805Z,-2.50
2023-02-08T16:59:14.060Z,-2.59
2023-02-08T17:01:49.011Z,-2.67
2023-02-08T17:04:35.523Z,-2.76
2023-02-08T17:07:12.508Z,-2.82
2023-02-08T17:09:42.769Z,-2.88
2023-02-08T17:12:21.820Z,-2.92
2023-02-08T17:14:53.481Z,-3.03
2023-02-08T17:17:29.130Z,-3.10
2023-02-08T17:20:00.299Z,-3.17
2023-02-08T17:22:30.762Z,-3.24
2023-02-08T17:25:00.413Z,-3.29
2023-02-08T17:27:30.729Z,-3.33
2023-02-08T17:30:00.310Z,-3.36
2023-02-08T17:32:30.219Z,-3.44
2023-02-08T17:35:02.531Z,-3.52
2023-02-08T17:37:33.054Z,-3.57
2023-02-08T17:40:02.506Z,-3.62
2023-02-08T17:42:32.927Z,-3.69
2023-02-08T17:45:04.332Z,-3.76
2023-02-08T17:47:34.899Z,-3.80
2023-02-08T17:50:09.402Z,-3.85
2023-02-08T17:52:39.167Z,-3.89
2023-02-08T17:55:11.379Z,-3.95
2023-02-08T17:57:45.726Z,-4.02
2023-02-08T18:00:19.777Z,-4.09
2023-02-08T18:02:55.502Z,-4.18
2023-02-08T18:05:28.307Z,-4.27
2023-02-08T18:08:00.164Z,-4.36
2023-02-08T18:10:30.319Z,-4.43
2023-02-08T18:13:00.781Z,-4.53
2023-02-08T18:15:31.054Z,-4.60
2023-02-08T18:18:00.810Z,-4.71
2023-02-08T18:20:30.639Z,-4.83
2023-02-08T18:23:00.973Z,-4.91
2023-02-08T18:25:31.858Z,-4.98
2023-02-08T18:28:03.426Z,-5.04
2023-02-08T18:30:34.628Z,-5.09
2023-02-08T18:33:04.190Z,-5.14
2023-02-08T18:35:33.477Z,-5.19
2023-02-08T18:38:04.527Z,-5.24
2023-02-08T18:40:36.550Z,-5.28
2023-02-08T18:43:09.690Z,-5.28
2023-02-08T18:45:39.812Z,-5.27
2023-02-08T18:48:09.666Z,-5.29
2023-02-08T18:50:40.116Z,-5.35
2023-02-08T18:53:12.904Z,-5.41
2023-02-08T18:55:55.118Z,-5.47
2023-02-08T18:58:26.754Z,-5.51
2023-02-08T19:01:13.682Z,-5.53
2023-02-08T19:03:45.467Z,-5.53
2023-02-08T19:06:18.662Z,-5.54
2023-02-08T19:08:55.798Z,-5.55
2023-02-08T19:11:34.499Z,-5.57
2023-02-08T19:14:11.082Z,-5.59
2023-02-08T19:16:44.842Z,-5.60
2023-02-08T19:19:14.516Z,-5.60
2023-02-08T19:21:44.038Z,-5.61
2023-02-08T19:24:15.375Z,-5.62
2023-02-08T19:26:45.849Z,-5.64
2023-02-08T19:29:17.979Z,-5.66
2023-02-08T19:31:50.052Z,-5.68
2023-02-08T19:34:22.096Z,-5.66
2023-02-08T19:36:57.620Z,-5.66
2023-02-08T19:39:31.353Z,-5.70
2023-02-08T19:42:01.185Z,-5.75
2023-02-08T19:44:31.235Z,-5.78
2023-02-08T19:47:01.064Z,-5.79
2023-02-08T19:49:37.861Z,-5.87
2023-02-08T19:52:07.803Z,-5.90
2023-02-08T19:54:37.317Z,-5.90
2023-02-08T19:57:13.196Z,-5.92
2023-02-08T19:59:45.069Z,-5.93
2023-02-08T20:02:18.805Z,-5.94
2023-02-08T20:04:48.229Z,-5.93
2023-02-08T20:07:18.638Z,-5.94
2023-02-08T20:09:48.816Z,-5.95
2023-02-08T20:12:20.584Z,-5.98
2023-02-08T20:14:50.863Z,-6.04
2023-02-08T20:17:20.774Z,-6.13
2023-02-08T20:19:52.843Z,-6.20
2023-02-08T20:22:23.555Z,-6.26
2023-02-08T20:24:55.052Z,-6.29
2023-02-08T20:27:24.984Z,-6.27
2023-02-08T20:29:57.093Z,-6.28
2023-02-08T20:32:28.163Z,-6.30
2023-02-08T20:34:59.849Z,-6.32
2023-02-08T20:37:30.860Z,-6.36
2023-02-08T20:40:00.662Z,-6.42
2023-02-08T20:42:31.841Z,-6.51
2023-02-08T20:45:04.613Z,-6.57
2023-02-08T20:47:46.055Z,-6.62
2023-02-08T20:50:20.413Z,-6.67
2023-02-08T20:52:50.224Z,-6.71
2023-02-08T20:55:19.948Z,-6.76
2023-02-08T20:57:50.252Z,-6.77
2023-02-08T21:00:21.656Z,-6.76
2023-02-08T21:02:53.436Z,-6.79
2023-02-08T21:05:23.043Z,-6.82
2023-02-08T21:07:54.497Z,-6.84
2023-02-08T21:10:24.505Z,-6.88
2023-02-08T21:12:54.248Z,-6.95
2023-02-08T21:15:23.643Z,-7.01
2023-02-08T21:17:53.050Z,-7.06
2023-02-08T21:20:23.423Z,-7.09
2023-02-08T21:22:53.158Z,-7.13
2023-02-08T21:25:24.685Z,-7.17
2023-02-08T21:27:54.751Z,-7.20
2023-02-08T21:30:27.501Z,-7.20
2023-02-08T21:32:56.721Z,-7.24
2023-02-08T21:35:26.712Z,-7.25
2023-02-08T21:37:58.762Z,-7.25
2023-02-08T21:40:29.963Z,-7.26
2023-02-08T21:43:00.667Z,-7.28
2023-02-08T21:45:31.517Z,-7.29
2023-02-08T21:48:00.621Z,-7.29
2023-02-08T21:50:49.063Z,-7.31
2023-02-08T21:53:55.459Z,-7.43
2023-02-08T21:56:24.663Z,-7.51
2023-02-08T21:58:54.653Z,-7.59
2023-02-08T22:01:25.248Z,-7.61
2023-02-08T22:03:59.019Z,-7.62
2023-02-08T22:06:33.749Z,-7.66
2023-02-08T22:09:04.806Z,-7.69
2023-02-08T22:11:41.519Z,-7.70
2023-02-08T22:14:14.248Z,-7.68
2023-02-08T22:16:44.382Z,-7.69
2023-02-08T22:19:14.470Z,-7.74
2023-02-08T22:21:45.518Z,-7.78
2023-02-08T22:24:15.070Z,-7.79
2023-02-08T22:26:44.439Z,-7.79
2023-02-08T22:29:14.617Z,-7.79
2023-02-08T22:31:47.847Z,-7.79
2023-02-08T22:34:20.643Z,-7.77
2023-02-08T22:36:53.489Z,-7.76
2023-02-08T22:39:24.165Z,-7.87
2023-02-08T22:41:53.665Z,-7.92
2023-02-08T22:44:23.224Z,-7.96
2023-02-08T22:47:13.745Z,-8.02
2023-02-08T22:49:43.190Z,-8.06
2023-02-08T22:52:15.159Z,-8.12
2023-02-08T22:54:45.139Z,-8.17
2023-02-08T22:58:25.985Z,-8.22
2023-02-08T23:01:12.873Z,-8.32
2023-02-08T23:03:43.514Z,-8.39
2023-02-08T23:06:16.487Z,-8.41
2023-02-08T23:08:46.055Z,-8.43
2023-02-08T23:11:16.628Z,-8.44
2023-02-08T23:13:46.275Z,-8.46
2023-02-08T23:16:18.280Z,-8.47
2023-02-08T23:18:50.532Z,-8.46
2023-02-08T23:21:23.333Z,-8.48
2023-02-08T23:23:52.720Z,-8.50
2023-02-08T23:26:24.088Z,-8.50
2023-02-08T23:28:54.500Z,-8.47
2023-02-08T23:31:32.218Z,-8.47
2023-02-08T23:34:02.317Z,-8.45
2023-02-08T23:36:32.212Z,-8.45
2023-02-08T23:39:03.739Z,-8.47
2023-02-08T23:41:33.372Z,-8.50
2023-02-08T23:44:03.764Z,-8.54
2023-02-08T23:46:34.309Z,-8.58
2023-02-08T23:49:04.527Z,-8.62
2023-02-08T23:51:33.672Z,-8.66
2023-02-08T23:54:07.131Z,-8.67
2023-02-08T23:56:36.870Z,-8.64
2023-02-08T23:59:08.853Z,-8.66
